sensor_id;sensor_type;location;lat;lon;timestamp;P1;durP1;ratioP1;P2;durP2;ratioP2
58260;SDS011;44058;52.898;6.502;2023-04-29T00:00:06;34.20;;;22.75;;
58260;SDS011;44058;52.898;6.502;2023-04-29T00:02:34;35.17;;;23.60;;
58260;SDS011;44058;52.898;6.502;2023-04-29T00:05:01;35.55;;;23.05;;
58260;SDS011;44058;52.898;6.502;2023-04-29T00:07:30;30.02;;;22.05;;
58260;SDS011;44058;52.898;6.502;2023-04-29T00:10:00;35.55;;;22.92;;
58260;SDS011;44058;52.898;6.502;2023-04-29T00:12:28;34.30;;;22.13;;
58260;SDS011;44058;52.898;6.502;2023-04-29T00:14:56;37.15;;;22.73;;
58260;SDS011;44058;52.898;6.502;2023-04-29T00:17:22;33.17;;;22.00;;
58260;SDS011;44058;52.898;6.502;2023-04-29T00:19:48;32.10;;;22.45;;
58260;SDS011;44058;52.898;6.502;2023-04-29T00:22:14;31.48;;;22.13;;
58260;SDS011;44058;52.898;6.502;2023-04-29T00:24:41;39.75;;;22.73;;
58260;SDS011;44058;52.898;6.502;2023-04-29T00:27:07;31.85;;;22.75;;
58260;SDS011;44058;52.898;6.502;2023-04-29T00:29:35;30.80;;;21.10;;
58260;SDS011;44058;52.898;6.502;2023-04-29T00:32:02;31.60;;;21.20;;
58260;SDS011;44058;52.898;6.502;2023-04-29T00:34:28;27.52;;;19.02;;
58260;SDS011;44058;52.898;6.502;2023-04-29T00:36:54;26.48;;;18.65;;
58260;SDS011;44058;52.898;6.502;2023-04-29T00:39:20;26.33;;;19.40;;
58260;SDS011;44058;52.898;6.502;2023-04-29T00:41:47;24.15;;;19.30;;
58260;SDS011;44058;52.898;6.502;2023-04-29T00:44:13;28.55;;;19.70;;
58260;SDS011;44058;52.898;6.502;2023-04-29T00:46:39;27.58;;;18.63;;
58260;SDS011;44058;52.898;6.502;2023-04-29T00:49:05;28.05;;;20.17;;
58260;SDS011;44058;52.898;6.502;2023-04-29T00:51:32;25.77;;;19.38;;
58260;SDS011;44058;52.898;6.502;2023-04-29T00:54:00;30.77;;;19.63;;
58260;SDS011;44058;52.898;6.502;2023-04-29T00:56:27;29.40;;;19.10;;
58260;SDS011;44058;52.898;6.502;2023-04-29T00:58:55;28.25;;;20.05;;
58260;SDS011;44058;52.898;6.502;2023-04-29T01:01:22;34.75;;;20.50;;
58260;SDS011;44058;52.898;6.502;2023-04-29T01:03:48;31.02;;;20.00;;
58260;SDS011;44058;52.898;6.502;2023-04-29T01:06:24;29.85;;;19.95;;
58260;SDS011;44058;52.898;6.502;2023-04-29T01:11:21;26.33;;;19.55;;
58260;SDS011;44058;52.898;6.502;2023-04-29T01:13:49;33.17;;;21.48;;
58260;SDS011;44058;52.898;6.502;2023-04-29T01:16:29;33.72;;;21.30;;
58260;SDS011;44058;52.898;6.502;2023-04-29T01:19:00;34.97;;;22.98;;
58260;SDS011;44058;52.898;6.502;2023-04-29T01:21:27;33.88;;;21.67;;
58260;SDS011;44058;52.898;6.502;2023-04-29T01:23:56;32.55;;;21.42;;
58260;SDS011;44058;52.898;6.502;2023-04-29T01:26:22;31.15;;;21.17;;
58260;SDS011;44058;52.898;6.502;2023-04-29T01:28:58;33.50;;;22.77;;
58260;SDS011;44058;52.898;6.502;2023-04-29T01:31:28;38.63;;;21.23;;
58260;SDS011;44058;52.898;6.502;2023-04-29T01:34:05;33.00;;;21.20;;
58260;SDS011;44058;52.898;6.502;2023-04-29T01:36:37;31.83;;;20.67;;
58260;SDS011;44058;52.898;6.502;2023-04-29T01:39:20;33.83;;;20.98;;
58260;SDS011;44058;52.898;6.502;2023-04-29T01:44:36;33.85;;;20.58;;
58260;SDS011;44058;52.898;6.502;2023-04-29T01:47:03;30.67;;;20.48;;
58260;SDS011;44058;52.898;6.502;2023-04-29T01:49:30;35.70;;;19.67;;
58260;SDS011;44058;52.898;6.502;2023-04-29T01:52:00;28.65;;;18.33;;
58260;SDS011;44058;52.898;6.502;2023-04-29T01:54:26;33.65;;;20.33;;
58260;SDS011;44058;52.898;6.502;2023-04-29T01:56:52;31.48;;;19.65;;
58260;SDS011;44058;52.898;6.502;2023-04-29T01:59:19;28.63;;;18.23;;
58260;SDS011;44058;52.898;6.502;2023-04-29T02:01:45;26.33;;;17.95;;
58260;SDS011;44058;52.898;6.502;2023-04-29T02:04:11;23.90;;;17.63;;
58260;SDS011;44058;52.898;6.502;2023-04-29T02:06:37;25.60;;;17.70;;
58260;SDS011;44058;52.898;6.502;2023-04-29T02:09:03;22.67;;;17.27;;
58260;SDS011;44058;52.898;6.502;2023-04-29T02:11:30;23.25;;;16.67;;
58260;SDS011;44058;52.898;6.502;2023-04-29T02:13:56;24.65;;;16.77;;
58260;SDS011;44058;52.898;6.502;2023-04-29T02:16:23;27.48;;;16.40;;
58260;SDS011;44058;52.898;6.502;2023-04-29T02:18:49;21.17;;;15.75;;
58260;SDS011;44058;52.898;6.502;2023-04-29T02:21:15;24.05;;;15.88;;
58260;SDS011;44058;52.898;6.502;2023-04-29T02:23:41;28.80;;;16.23;;
58260;SDS011;44058;52.898;6.502;2023-04-29T02:26:07;25.45;;;16.17;;
58260;SDS011;44058;52.898;6.502;2023-04-29T02:28:34;24.55;;;16.65;;
58260;SDS011;44058;52.898;6.502;2023-04-29T02:31:00;23.75;;;15.57;;
58260;SDS011;44058;52.898;6.502;2023-04-29T02:33:27;24.40;;;14.90;;
58260;SDS011;44058;52.898;6.502;2023-04-29T02:35:53;22.27;;;15.73;;
58260;SDS011;44058;52.898;6.502;2023-04-29T02:38:19;26.30;;;16.70;;
58260;SDS011;44058;52.898;6.502;2023-04-29T02:40:45;24.75;;;15.55;;
58260;SDS011;44058;52.898;6.502;2023-04-29T02:43:12;23.92;;;16.08;;
58260;SDS011;44058;52.898;6.502;2023-04-29T02:45:38;24.55;;;15.45;;
58260;SDS011;44058;52.898;6.502;2023-04-29T02:48:04;25.02;;;16.27;;
58260;SDS011;44058;52.898;6.502;2023-04-29T02:50:31;26.45;;;16.58;;
58260;SDS011;44058;52.898;6.502;2023-04-29T02:52:57;23.92;;;16.15;;
58260;SDS011;44058;52.898;6.502;2023-04-29T02:55:23;25.02;;;16.05;;
58260;SDS011;44058;52.898;6.502;2023-04-29T02:57:49;23.55;;;15.82;;
58260;SDS011;44058;52.898;6.502;2023-04-29T03:00:15;28.20;;;16.30;;
58260;SDS011;44058;52.898;6.502;2023-04-29T03:02:41;27.40;;;15.52;;
58260;SDS011;44058;52.898;6.502;2023-04-29T03:05:07;24.23;;;15.70;;
58260;SDS011;44058;52.898;6.502;2023-04-29T03:07:34;25.00;;;15.27;;
58260;SDS011;44058;52.898;6.502;2023-04-29T03:10:00;22.38;;;15.10;;
58260;SDS011;44058;52.898;6.502;2023-04-29T03:12:26;24.90;;;15.90;;
58260;SDS011;44058;52.898;6.502;2023-04-29T03:14:53;23.92;;;15.25;;
58260;SDS011;44058;52.898;6.502;2023-04-29T03:17:19;27.58;;;15.10;;
58260;SDS011;44058;52.898;6.502;2023-04-29T03:19:45;24.63;;;15.57;;
58260;SDS011;44058;52.898;6.502;2023-04-29T03:22:11;24.95;;;16.33;;
58260;SDS011;44058;52.898;6.502;2023-04-29T03:24:37;26.48;;;16.83;;
58260;SDS011;44058;52.898;6.502;2023-04-29T03:27:03;25.75;;;16.88;;
58260;SDS011;44058;52.898;6.502;2023-04-29T03:29:30;22.38;;;16.08;;
58260;SDS011;44058;52.898;6.502;2023-04-29T03:31:56;25.00;;;16.27;;
58260;SDS011;44058;52.898;6.502;2023-04-29T03:34:22;23.10;;;15.40;;
58260;SDS011;44058;52.898;6.502;2023-04-29T03:36:49;29.30;;;16.48;;
58260;SDS011;44058;52.898;6.502;2023-04-29T03:39:16;24.95;;;15.68;;
58260;SDS011;44058;52.898;6.502;2023-04-29T03:41:42;25.80;;;15.63;;
58260;SDS011;44058;52.898;6.502;2023-04-29T03:44:08;27.25;;;16.02;;
58260;SDS011;44058;52.898;6.502;2023-04-29T03:46:34;27.73;;;16.90;;
58260;SDS011;44058;52.898;6.502;2023-04-29T03:49:01;29.92;;;17.00;;
58260;SDS011;44058;52.898;6.502;2023-04-29T03:51:27;26.85;;;16.50;;
58260;SDS011;44058;52.898;6.502;2023-04-29T03:53:53;28.60;;;17.98;;
58260;SDS011;44058;52.898;6.502;2023-04-29T03:56:23;26.75;;;17.83;;
58260;SDS011;44058;52.898;6.502;2023-04-29T03:58:52;26.08;;;17.15;;
58260;SDS011;44058;52.898;6.502;2023-04-29T04:01:18;29.73;;;17.38;;
58260;SDS011;44058;52.898;6.502;2023-04-29T04:03:45;27.63;;;18.02;;
58260;SDS011;44058;52.898;6.502;2023-04-29T04:06:11;26.52;;;16.30;;
58260;SDS011;44058;52.898;6.502;2023-04-29T04:08:37;30.20;;;16.92;;
58260;SDS011;44058;52.898;6.502;2023-04-29T04:11:05;25.50;;;16.45;;
58260;SDS011;44058;52.898;6.502;2023-04-29T04:13:32;25.80;;;16.75;;
58260;SDS011;44058;52.898;6.502;2023-04-29T04:15:59;23.10;;;16.67;;
58260;SDS011;44058;52.898;6.502;2023-04-29T04:18:25;25.50;;;15.48;;
58260;SDS011;44058;52.898;6.502;2023-04-29T04:20:52;28.30;;;16.08;;
58260;SDS011;44058;52.898;6.502;2023-04-29T04:23:18;24.88;;;15.13;;
58260;SDS011;44058;52.898;6.502;2023-04-29T04:25:45;27.50;;;16.25;;
58260;SDS011;44058;52.898;6.502;2023-04-29T04:28:11;26.73;;;15.45;;
58260;SDS011;44058;52.898;6.502;2023-04-29T04:30:37;27.35;;;14.60;;
58260;SDS011;44058;52.898;6.502;2023-04-29T04:33:03;21.75;;;14.80;;
58260;SDS011;44058;52.898;6.502;2023-04-29T04:35:30;21.75;;;14.63;;
58260;SDS011;44058;52.898;6.502;2023-04-29T04:37:56;21.80;;;14.15;;
58260;SDS011;44058;52.898;6.502;2023-04-29T04:40:22;22.05;;;14.18;;
58260;SDS011;44058;52.898;6.502;2023-04-29T04:42:49;23.25;;;14.85;;
58260;SDS011;44058;52.898;6.502;2023-04-29T04:45:15;22.50;;;14.02;;
58260;SDS011;44058;52.898;6.502;2023-04-29T04:47:41;23.73;;;13.68;;
58260;SDS011;44058;52.898;6.502;2023-04-29T04:50:07;25.60;;;14.15;;
58260;SDS011;44058;52.898;6.502;2023-04-29T04:52:34;23.52;;;13.57;;
58260;SDS011;44058;52.898;6.502;2023-04-29T04:55:00;24.73;;;14.10;;
58260;SDS011;44058;52.898;6.502;2023-04-29T04:57:26;23.00;;;14.75;;
58260;SDS011;44058;52.898;6.502;2023-04-29T04:59:52;21.30;;;13.45;;
58260;SDS011;44058;52.898;6.502;2023-04-29T05:02:18;20.42;;;12.15;;
58260;SDS011;44058;52.898;6.502;2023-04-29T05:04:44;19.67;;;12.20;;
58260;SDS011;44058;52.898;6.502;2023-04-29T05:07:10;16.95;;;12.63;;
58260;SDS011;44058;52.898;6.502;2023-04-29T05:09:36;18.92;;;12.25;;
58260;SDS011;44058;52.898;6.502;2023-04-29T05:12:02;21.90;;;13.25;;
58260;SDS011;44058;52.898;6.502;2023-04-29T05:14:28;22.33;;;11.98;;
58260;SDS011;44058;52.898;6.502;2023-04-29T05:16:58;18.80;;;11.90;;
58260;SDS011;44058;52.898;6.502;2023-04-29T05:19:24;17.50;;;12.05;;
58260;SDS011;44058;52.898;6.502;2023-04-29T05:21:51;18.55;;;11.90;;
58260;SDS011;44058;52.898;6.502;2023-04-29T05:24:17;16.20;;;11.65;;
58260;SDS011;44058;52.898;6.502;2023-04-29T05:26:43;20.25;;;12.05;;
58260;SDS011;44058;52.898;6.502;2023-04-29T05:29:09;22.67;;;12.63;;
58260;SDS011;44058;52.898;6.502;2023-04-29T05:31:36;18.58;;;11.98;;
58260;SDS011;44058;52.898;6.502;2023-04-29T05:34:03;19.20;;;11.93;;
58260;SDS011;44058;52.898;6.502;2023-04-29T05:36:29;20.52;;;11.60;;
58260;SDS011;44058;52.898;6.502;2023-04-29T05:38:56;21.38;;;12.35;;
58260;SDS011;44058;52.898;6.502;2023-04-29T05:41:22;19.45;;;12.20;;
58260;SDS011;44058;52.898;6.502;2023-04-29T05:43:49;19.05;;;10.13;;
58260;SDS011;44058;52.898;6.502;2023-04-29T05:46:15;17.58;;;10.65;;
58260;SDS011;44058;52.898;6.502;2023-04-29T05:48:41;15.90;;;10.25;;
58260;SDS011;44058;52.898;6.502;2023-04-29T05:51:07;17.65;;;9.13;;
58260;SDS011;44058;52.898;6.502;2023-04-29T05:53:33;15.82;;;10.02;;
58260;SDS011;44058;52.898;6.502;2023-04-29T05:56:02;16.95;;;9.95;;
58260;SDS011;44058;52.898;6.502;2023-04-29T05:58:32;16.38;;;9.90;;
58260;SDS011;44058;52.898;6.502;2023-04-29T06:00:58;13.18;;;9.85;;
58260;SDS011;44058;52.898;6.502;2023-04-29T06:03:24;15.18;;;9.15;;
58260;SDS011;44058;52.898;6.502;2023-04-29T06:05:50;16.27;;;9.85;;
58260;SDS011;44058;52.898;6.502;2023-04-29T06:08:17;11.85;;;8.63;;
58260;SDS011;44058;52.898;6.502;2023-04-29T06:10:43;14.73;;;9.30;;
58260;SDS011;44058;52.898;6.502;2023-04-29T06:13:10;17.40;;;10.40;;
58260;SDS011;44058;52.898;6.502;2023-04-29T06:15:36;12.57;;;9.35;;
58260;SDS011;44058;52.898;6.502;2023-04-29T06:18:03;14.35;;;8.80;;
58260;SDS011;44058;52.898;6.502;2023-04-29T06:20:29;19.98;;;9.20;;
58260;SDS011;44058;52.898;6.502;2023-04-29T06:22:55;14.57;;;9.30;;
58260;SDS011;44058;52.898;6.502;2023-04-29T06:25:21;14.98;;;8.88;;
58260;SDS011;44058;52.898;6.502;2023-04-29T06:27:47;13.23;;;8.68;;
58260;SDS011;44058;52.898;6.502;2023-04-29T06:30:14;11.85;;;8.48;;
58260;SDS011;44058;52.898;6.502;2023-04-29T06:32:40;14.52;;;9.52;;
58260;SDS011;44058;52.898;6.502;2023-04-29T06:35:07;13.32;;;9.30;;
58260;SDS011;44058;52.898;6.502;2023-04-29T06:37:33;14.40;;;9.25;;
58260;SDS011;44058;52.898;6.502;2023-04-29T06:39:59;13.63;;;9.32;;
58260;SDS011;44058;52.898;6.502;2023-04-29T06:42:25;14.63;;;8.52;;
58260;SDS011;44058;52.898;6.502;2023-04-29T06:44:51;11.48;;;8.60;;
58260;SDS011;44058;52.898;6.502;2023-04-29T06:47:17;16.33;;;9.30;;
58260;SDS011;44058;52.898;6.502;2023-04-29T06:49:44;15.27;;;9.60;;
58260;SDS011;44058;52.898;6.502;2023-04-29T06:52:10;14.20;;;8.70;;
58260;SDS011;44058;52.898;6.502;2023-04-29T06:54:36;14.27;;;8.90;;
58260;SDS011;44058;52.898;6.502;2023-04-29T06:57:02;13.23;;;8.77;;
58260;SDS011;44058;52.898;6.502;2023-04-29T06:59:28;11.80;;;8.25;;
58260;SDS011;44058;52.898;6.502;2023-04-29T07:01:54;13.00;;;8.75;;
58260;SDS011;44058;52.898;6.502;2023-04-29T07:04:20;13.32;;;8.73;;
58260;SDS011;44058;52.898;6.502;2023-04-29T07:06:47;11.48;;;8.90;;
58260;SDS011;44058;52.898;6.502;2023-04-29T07:09:13;13.93;;;8.07;;
58260;SDS011;44058;52.898;6.502;2023-04-29T07:11:39;14.90;;;8.30;;
58260;SDS011;44058;52.898;6.502;2023-04-29T07:14:06;13.70;;;8.45;;
58260;SDS011;44058;52.898;6.502;2023-04-29T07:16:32;11.40;;;8.38;;
58260;SDS011;44058;52.898;6.502;2023-04-29T07:18:59;12.10;;;8.85;;
58260;SDS011;44058;52.898;6.502;2023-04-29T07:21:25;11.27;;;8.15;;
58260;SDS011;44058;52.898;6.502;2023-04-29T07:23:52;15.13;;;8.50;;
58260;SDS011;44058;52.898;6.502;2023-04-29T07:26:19;12.10;;;7.68;;
58260;SDS011;44058;52.898;6.502;2023-04-29T07:28:46;12.15;;;7.57;;
58260;SDS011;44058;52.898;6.502;2023-04-29T07:31:13;14.50;;;8.48;;
58260;SDS011;44058;52.898;6.502;2023-04-29T07:33:39;11.55;;;7.72;;
58260;SDS011;44058;52.898;6.502;2023-04-29T07:36:05;14.13;;;8.23;;
58260;SDS011;44058;52.898;6.502;2023-04-29T07:38:31;11.60;;;7.90;;
58260;SDS011;44058;52.898;6.502;2023-04-29T07:40:58;12.52;;;8.30;;
58260;SDS011;44058;52.898;6.502;2023-04-29T07:43:24;12.90;;;8.40;;
58260;SDS011;44058;52.898;6.502;2023-04-29T07:45:50;12.80;;;7.97;;
58260;SDS011;44058;52.898;6.502;2023-04-29T07:48:17;9.90;;;7.72;;
58260;SDS011;44058;52.898;6.502;2023-04-29T07:50:43;14.52;;;8.10;;
58260;SDS011;44058;52.898;6.502;2023-04-29T07:53:09;13.63;;;8.20;;
58260;SDS011;44058;52.898;6.502;2023-04-29T07:55:36;9.07;;;7.40;;
58260;SDS011;44058;52.898;6.502;2023-04-29T07:58:02;11.85;;;7.90;;
58260;SDS011;44058;52.898;6.502;2023-04-29T08:00:28;11.77;;;7.50;;
58260;SDS011;44058;52.898;6.502;2023-04-29T08:02:55;8.93;;;6.85;;
58260;SDS011;44058;52.898;6.502;2023-04-29T08:05:21;10.00;;;6.78;;
58260;SDS011;44058;52.898;6.502;2023-04-29T08:07:48;13.77;;;7.82;;
58260;SDS011;44058;52.898;6.502;2023-04-29T08:10:14;10.23;;;7.57;;
58260;SDS011;44058;52.898;6.502;2023-04-29T08:12:41;10.30;;;7.40;;
58260;SDS011;44058;52.898;6.502;2023-04-29T08:15:07;11.02;;;7.43;;
58260;SDS011;44058;52.898;6.502;2023-04-29T08:17:33;9.38;;;7.15;;
58260;SDS011;44058;52.898;6.502;2023-04-29T08:20:00;11.27;;;8.07;;
58260;SDS011;44058;52.898;6.502;2023-04-29T08:22:26;10.35;;;7.45;;
58260;SDS011;44058;52.898;6.502;2023-04-29T08:24:52;12.93;;;8.25;;
58260;SDS011;44058;52.898;6.502;2023-04-29T08:27:18;9.73;;;7.78;;
58260;SDS011;44058;52.898;6.502;2023-04-29T08:29:46;11.52;;;7.75;;
58260;SDS011;44058;52.898;6.502;2023-04-29T08:32:12;9.43;;;7.45;;
58260;SDS011;44058;52.898;6.502;2023-04-29T08:34:38;10.45;;;7.53;;
58260;SDS011;44058;52.898;6.502;2023-04-29T08:37:05;11.68;;;7.82;;
58260;SDS011;44058;52.898;6.502;2023-04-29T08:39:31;10.48;;;7.72;;
58260;SDS011;44058;52.898;6.502;2023-04-29T08:41:58;11.15;;;7.47;;
58260;SDS011;44058;52.898;6.502;2023-04-29T08:44:25;9.88;;;7.38;;
58260;SDS011;44058;52.898;6.502;2023-04-29T08:46:51;9.23;;;6.40;;
58260;SDS011;44058;52.898;6.502;2023-04-29T08:49:17;8.05;;;6.57;;
58260;SDS011;44058;52.898;6.502;2023-04-29T08:51:44;10.05;;;7.18;;
58260;SDS011;44058;52.898;6.502;2023-04-29T08:54:10;10.63;;;6.97;;
58260;SDS011;44058;52.898;6.502;2023-04-29T08:56:36;10.73;;;6.88;;
58260;SDS011;44058;52.898;6.502;2023-04-29T08:59:03;8.93;;;6.57;;
58260;SDS011;44058;52.898;6.502;2023-04-29T09:01:32;9.40;;;6.20;;
58260;SDS011;44058;52.898;6.502;2023-04-29T09:06:27;10.00;;;6.18;;
58260;SDS011;44058;52.898;6.502;2023-04-29T09:08:57;7.80;;;5.70;;
58260;SDS011;44058;52.898;6.502;2023-04-29T09:11:23;6.75;;;5.72;;
58260;SDS011;44058;52.898;6.502;2023-04-29T09:13:50;8.82;;;5.28;;
58260;SDS011;44058;52.898;6.502;2023-04-29T09:16:16;7.22;;;5.53;;
58260;SDS011;44058;52.898;6.502;2023-04-29T09:23:38;7.25;;;5.68;;
58260;SDS011;44058;52.898;6.502;2023-04-29T09:26:04;8.18;;;5.80;;
58260;SDS011;44058;52.898;6.502;2023-04-29T09:28:30;8.90;;;5.70;;
58260;SDS011;44058;52.898;6.502;2023-04-29T09:30:57;9.20;;;5.68;;
58260;SDS011;44058;52.898;6.502;2023-04-29T09:33:23;7.78;;;5.70;;
58260;SDS011;44058;52.898;6.502;2023-04-29T09:38:18;8.02;;;5.38;;
58260;SDS011;44058;52.898;6.502;2023-04-29T09:40:46;11.38;;;6.97;;
58260;SDS011;44058;52.898;6.502;2023-04-29T09:43:15;8.88;;;5.90;;
58260;SDS011;44058;52.898;6.502;2023-04-29T09:45:43;10.02;;;5.78;;
58260;SDS011;44058;52.898;6.502;2023-04-29T09:48:10;8.13;;;5.13;;
58260;SDS011;44058;52.898;6.502;2023-04-29T09:50:39;8.43;;;5.35;;
58260;SDS011;44058;52.898;6.502;2023-04-29T09:53:06;9.05;;;5.80;;
58260;SDS011;44058;52.898;6.502;2023-04-29T09:55:37;12.02;;;6.07;;
58260;SDS011;44058;52.898;6.502;2023-04-29T09:58:29;8.15;;;5.57;;
58260;SDS011;44058;52.898;6.502;2023-04-29T10:00:58;7.65;;;5.85;;
58260;SDS011;44058;52.898;6.502;2023-04-29T10:03:26;8.77;;;5.97;;
58260;SDS011;44058;52.898;6.502;2023-04-29T10:05:57;8.05;;;5.80;;
58260;SDS011;44058;52.898;6.502;2023-04-29T10:08:23;7.30;;;5.75;;
58260;SDS011;44058;52.898;6.502;2023-04-29T10:10:49;10.70;;;5.85;;
58260;SDS011;44058;52.898;6.502;2023-04-29T10:13:23;8.00;;;5.80;;
58260;SDS011;44058;52.898;6.502;2023-04-29T10:16:02;8.60;;;6.07;;
58260;SDS011;44058;52.898;6.502;2023-04-29T10:18:35;8.60;;;5.50;;
58260;SDS011;44058;52.898;6.502;2023-04-29T10:21:02;8.02;;;6.00;;
58260;SDS011;44058;52.898;6.502;2023-04-29T10:23:32;6.18;;;5.30;;
58260;SDS011;44058;52.898;6.502;2023-04-29T10:25:59;7.15;;;5.28;;
58260;SDS011;44058;52.898;6.502;2023-04-29T10:28:25;8.63;;;5.65;;
58260;SDS011;44058;52.898;6.502;2023-04-29T10:30:53;9.52;;;5.93;;
58260;SDS011;44058;52.898;6.502;2023-04-29T10:33:19;6.90;;;5.20;;
58260;SDS011;44058;52.898;6.502;2023-04-29T10:35:47;7.93;;;5.05;;
58260;SDS011;44058;52.898;6.502;2023-04-29T10:38:25;6.60;;;4.90;;
58260;SDS011;44058;52.898;6.502;2023-04-29T10:40:53;8.63;;;5.38;;
58260;SDS011;44058;52.898;6.502;2023-04-29T10:43:23;8.73;;;4.90;;
58260;SDS011;44058;52.898;6.502;2023-04-29T10:48:35;7.70;;;4.50;;
58260;SDS011;44058;52.898;6.502;2023-04-29T10:51:02;7.32;;;4.30;;
58260;SDS011;44058;52.898;6.502;2023-04-29T10:53:28;6.90;;;4.22;;
58260;SDS011;44058;52.898;6.502;2023-04-29T10:55:59;4.43;;;4.00;;
58260;SDS011;44058;52.898;6.502;2023-04-29T11:01:00;7.78;;;4.57;;
58260;SDS011;44058;52.898;6.502;2023-04-29T11:06:11;5.38;;;4.80;;
58260;SDS011;44058;52.898;6.502;2023-04-29T11:08:37;4.53;;;3.58;;
58260;SDS011;44058;52.898;6.502;2023-04-29T11:11:04;5.05;;;4.53;;
58260;SDS011;44058;52.898;6.502;2023-04-29T11:13:37;7.47;;;4.47;;
58260;SDS011;44058;52.898;6.502;2023-04-29T11:16:04;5.22;;;3.90;;
58260;SDS011;44058;52.898;6.502;2023-04-29T11:18:30;6.47;;;4.50;;
58260;SDS011;44058;52.898;6.502;2023-04-29T11:23:33;5.25;;;3.83;;
58260;SDS011;44058;52.898;6.502;2023-04-29T11:26:02;6.18;;;4.00;;
58260;SDS011;44058;52.898;6.502;2023-04-29T11:28:29;5.43;;;4.15;;
58260;SDS011;44058;52.898;6.502;2023-04-29T11:30:56;7.60;;;4.05;;
58260;SDS011;44058;52.898;6.502;2023-04-29T11:33:22;5.40;;;4.40;;
58260;SDS011;44058;52.898;6.502;2023-04-29T11:35:48;5.75;;;4.00;;
58260;SDS011;44058;52.898;6.502;2023-04-29T11:38:14;5.75;;;3.58;;
58260;SDS011;44058;52.898;6.502;2023-04-29T11:40:41;5.00;;;3.38;;
58260;SDS011;44058;52.898;6.502;2023-04-29T11:43:07;6.50;;;3.60;;
58260;SDS011;44058;52.898;6.502;2023-04-29T11:45:38;5.32;;;3.83;;
58260;SDS011;44058;52.898;6.502;2023-04-29T11:48:04;6.63;;;3.58;;
58260;SDS011;44058;52.898;6.502;2023-04-29T11:50:31;4.93;;;3.50;;
58260;SDS011;44058;52.898;6.502;2023-04-29T11:52:57;4.80;;;3.42;;
58260;SDS011;44058;52.898;6.502;2023-04-29T11:55:24;6.70;;;3.88;;
58260;SDS011;44058;52.898;6.502;2023-04-29T11:57:50;5.88;;;3.85;;
58260;SDS011;44058;52.898;6.502;2023-04-29T12:00:17;6.57;;;3.85;;
58260;SDS011;44058;52.898;6.502;2023-04-29T12:02:43;5.70;;;3.92;;
58260;SDS011;44058;52.898;6.502;2023-04-29T12:05:12;6.10;;;3.83;;
58260;SDS011;44058;52.898;6.502;2023-04-29T12:07:39;8.48;;;4.20;;
58260;SDS011;44058;52.898;6.502;2023-04-29T12:10:08;7.32;;;4.30;;
58260;SDS011;44058;52.898;6.502;2023-04-29T12:12:35;6.07;;;3.45;;
58260;SDS011;44058;52.898;6.502;2023-04-29T12:15:02;6.70;;;3.55;;
58260;SDS011;44058;52.898;6.502;2023-04-29T12:17:29;6.03;;;4.13;;
58260;SDS011;44058;52.898;6.502;2023-04-29T12:19:55;4.07;;;3.35;;
58260;SDS011;44058;52.898;6.502;2023-04-29T12:22:22;7.35;;;3.90;;
58260;SDS011;44058;52.898;6.502;2023-04-29T12:24:51;4.72;;;3.30;;
58260;SDS011;44058;52.898;6.502;2023-04-29T12:27:18;4.72;;;3.60;;
58260;SDS011;44058;52.898;6.502;2023-04-29T12:29:45;5.60;;;2.97;;
58260;SDS011;44058;52.898;6.502;2023-04-29T12:32:11;3.92;;;3.17;;
58260;SDS011;44058;52.898;6.502;2023-04-29T12:34:41;5.22;;;2.55;;
58260;SDS011;44058;52.898;6.502;2023-04-29T12:37:08;2.90;;;2.60;;
58260;SDS011;44058;52.898;6.502;2023-04-29T12:39:34;3.50;;;2.53;;
58260;SDS011;44058;52.898;6.502;2023-04-29T12:42:00;4.28;;;2.53;;
58260;SDS011;44058;52.898;6.502;2023-04-29T12:44:33;6.20;;;2.58;;
58260;SDS011;44058;52.898;6.502;2023-04-29T12:47:06;2.80;;;2.22;;
58260;SDS011;44058;52.898;6.502;2023-04-29T12:49:32;4.07;;;2.33;;
58260;SDS011;44058;52.898;6.502;2023-04-29T12:51:59;4.07;;;2.10;;
58260;SDS011;44058;52.898;6.502;2023-04-29T12:54:25;4.07;;;2.45;;
58260;SDS011;44058;52.898;6.502;2023-04-29T12:56:51;3.63;;;2.38;;
58260;SDS011;44058;52.898;6.502;2023-04-29T12:59:17;7.65;;;2.63;;
58260;SDS011;44058;52.898;6.502;2023-04-29T13:01:43;3.45;;;2.28;;
58260;SDS011;44058;52.898;6.502;2023-04-29T13:04:10;3.88;;;2.15;;
58260;SDS011;44058;52.898;6.502;2023-04-29T13:06:36;4.25;;;2.20;;
58260;SDS011;44058;52.898;6.502;2023-04-29T13:09:06;2.92;;;1.80;;
58260;SDS011;44058;52.898;6.502;2023-04-29T13:11:36;3.83;;;2.05;;
58260;SDS011;44058;52.898;6.502;2023-04-29T13:14:03;3.42;;;1.85;;
58260;SDS011;44058;52.898;6.502;2023-04-29T13:16:31;3.25;;;1.80;;
58260;SDS011;44058;52.898;6.502;2023-04-29T13:18:58;3.63;;;2.33;;
58260;SDS011;44058;52.898;6.502;2023-04-29T13:21:24;3.05;;;2.50;;
58260;SDS011;44058;52.898;6.502;2023-04-29T13:23:51;4.90;;;2.50;;
58260;SDS011;44058;52.898;6.502;2023-04-29T13:26:18;4.43;;;2.47;;
58260;SDS011;44058;52.898;6.502;2023-04-29T13:28:44;4.15;;;2.20;;
58260;SDS011;44058;52.898;6.502;2023-04-29T13:31:11;4.95;;;2.72;;
58260;SDS011;44058;52.898;6.502;2023-04-29T13:33:37;5.07;;;2.25;;
58260;SDS011;44058;52.898;6.502;2023-04-29T13:36:03;3.15;;;1.90;;
58260;SDS011;44058;52.898;6.502;2023-04-29T13:38:29;2.85;;;1.85;;
58260;SDS011;44058;52.898;6.502;2023-04-29T13:40:56;3.08;;;1.80;;
58260;SDS011;44058;52.898;6.502;2023-04-29T13:43:22;2.83;;;1.80;;
58260;SDS011;44058;52.898;6.502;2023-04-29T13:45:48;1.98;;;1.42;;
58260;SDS011;44058;52.898;6.502;2023-04-29T13:48:15;1.67;;;1.55;;
58260;SDS011;44058;52.898;6.502;2023-04-29T13:50:41;2.45;;;1.35;;
58260;SDS011;44058;52.898;6.502;2023-04-29T13:53:09;2.33;;;0.93;;
58260;SDS011;44058;52.898;6.502;2023-04-29T13:55:35;1.98;;;1.20;;
58260;SDS011;44058;52.898;6.502;2023-04-29T13:58:01;1.42;;;1.08;;
58260;SDS011;44058;52.898;6.502;2023-04-29T14:00:27;2.78;;;1.10;;
58260;SDS011;44058;52.898;6.502;2023-04-29T14:02:54;1.20;;;0.90;;
58260;SDS011;44058;52.898;6.502;2023-04-29T14:05:20;2.15;;;0.90;;
58260;SDS011;44058;52.898;6.502;2023-04-29T14:07:46;1.30;;;0.90;;
58260;SDS011;44058;52.898;6.502;2023-04-29T14:10:12;1.30;;;1.10;;
58260;SDS011;44058;52.898;6.502;2023-04-29T14:12:38;1.13;;;1.00;;
58260;SDS011;44058;52.898;6.502;2023-04-29T14:15:04;1.25;;;0.90;;
58260;SDS011;44058;52.898;6.502;2023-04-29T14:17:31;3.72;;;1.30;;
58260;SDS011;44058;52.898;6.502;2023-04-29T14:19:57;1.55;;;1.10;;
58260;SDS011;44058;52.898;6.502;2023-04-29T14:22:23;3.03;;;1.23;;
58260;SDS011;44058;52.898;6.502;2023-04-29T14:24:50;2.67;;;1.50;;
58260;SDS011;44058;52.898;6.502;2023-04-29T14:27:17;2.97;;;1.25;;
58260;SDS011;44058;52.898;6.502;2023-04-29T14:29:43;2.80;;;1.13;;
58260;SDS011;44058;52.898;6.502;2023-04-29T14:32:10;3.35;;;1.55;;
58260;SDS011;44058;52.898;6.502;2023-04-29T14:34:36;1.98;;;1.45;;
58260;SDS011;44058;52.898;6.502;2023-04-29T14:37:02;2.63;;;1.73;;
58260;SDS011;44058;52.898;6.502;2023-04-29T14:39:28;4.32;;;1.65;;
58260;SDS011;44058;52.898;6.502;2023-04-29T14:41:54;2.00;;;1.38;;
58260;SDS011;44058;52.898;6.502;2023-04-29T14:44:20;3.13;;;1.60;;
58260;SDS011;44058;52.898;6.502;2023-04-29T14:46:47;1.70;;;1.60;;
58260;SDS011;44058;52.898;6.502;2023-04-29T14:49:13;2.92;;;1.60;;
58260;SDS011;44058;52.898;6.502;2023-04-29T14:51:39;3.25;;;2.17;;
58260;SDS011;44058;52.898;6.502;2023-04-29T14:54:05;2.85;;;2.55;;
58260;SDS011;44058;52.898;6.502;2023-04-29T14:56:31;3.90;;;2.55;;